Lake Sullivan, Indiana
Current Conditions -  °F | °C
As of 3:35 AM on Monday 24 Nov 2014 (Local Time) from KRSV Reporting Station
Light Rain Light Rain  
Wind Chill: 56°   Ceiling: 1800
Heat Index: 56°   Visibility: 10mi
Dew Point: 55°   Wind: 13mph
Humidity: 94%   Direction: 180°S
Pressure: 29.22"   Gusts: 20mph
Location:  39.1044°N, 87.4347°W
Report Text: KRSV 240835Z AUTO 18011G17KT 10SM -RA SCT012 BKN018 OVC080 14/13 A2922 RMK AO2 T01350125
Loading
Personal Weather Stations






























Interactive Weather Map New forecast layout! Learn more

10-Day Weather Forecast

Advertisements
Track Severe Weather on mobile